Time;durP1;ratioP1;P1;durP2;ratioP2;P2;SDS_P1;SDS_P2;PMS_P1;PMS_P2;Temp;Humidity;BMP_temperature;BMP_pressure;BME280_temperature;BME280_humidity;BME280_pressure;Samples;Min_cycle;Max_cycle;Signal;HPM_P1;HPM_P2
2023/03/27 00:02:00;;;;;;;6.32;1.40;;;3.80;99.90;;;;;;5030062;28;20053;-75
2023/03/27 00:04:27;;;;;;;5.30;1.52;;;3.70;99.90;;;;;;4990564;28;20026;-74
2023/03/27 00:06:53;;;;;;;6.45;0.98;;;3.70;99.90;;;;;;5007249;28;20098;-73
2023/03/27 00:09:20;;;;;;;8.02;1.38;;;3.60;99.90;;;;;;5022497;28;20030;-76
2023/03/27 00:11:47;;;;;;;4.97;1.20;;;3.60;99.90;;;;;;5006778;28;20034;-76
2023/03/27 00:14:13;;;;;;;9.73;1.50;;;3.60;99.90;;;;;;5005747;28;20030;-76
2023/03/27 00:16:38;;;;;;;4.90;1.30;;;3.60;99.90;;;;;;5007121;28;20131;-76
2023/03/27 00:19:04;;;;;;;13.43;1.70;;;3.60;99.90;;;;;;4996401;28;20034;-76
2023/03/27 00:21:30;;;;;;;6.53;2.22;;;3.60;99.90;;;;;;5014398;28;20033;-76
2023/03/27 00:23:56;;;;;;;6.80;1.00;;;3.60;99.90;;;;;;5008096;28;20036;-76
2023/03/27 00:26:22;;;;;;;6.25;1.30;;;3.60;99.90;;;;;;5005269;28;20048;-76
2023/03/27 00:28:48;;;;;;;7.25;1.40;;;3.60;99.90;;;;;;5031964;28;20049;-76
2023/03/27 00:31:15;;;;;;;6.43;1.20;;;3.60;99.90;;;;;;4987846;28;20047;-76
2023/03/27 00:33:42;;;;;;;16.70;1.40;;;3.60;99.90;;;;;;5006410;28;20354;-76
2023/03/27 00:36:09;;;;;;;6.63;1.60;;;3.60;99.90;;;;;;5007146;28;20127;-76
2023/03/27 00:38:35;;;;;;;7.60;1.40;;;3.60;99.90;;;;;;5006673;28;20025;-74
2023/03/27 00:41:01;;;;;;;9.07;1.92;;;3.60;99.90;;;;;;5003193;28;20539;-76
2023/03/27 00:43:33;;;;;;;6.72;1.20;;;3.60;99.90;;;;;;5016386;28;20125;-74
2023/03/27 00:46:23;;;;;;;10.32;1.17;;;3.60;99.90;;;;;;5006289;28;20084;-74
2023/03/27 00:48:51;;;;;;;4.72;0.95;;;3.60;99.90;;;;;;5004275;28;20386;-74
2023/03/27 00:51:19;;;;;;;6.65;0.95;;;3.50;99.90;;;;;;5007225;28;20064;-74
2023/03/27 00:53:45;;;;;;;2.85;0.82;;;3.50;99.90;;;;;;5006620;28;20512;-76
2023/03/27 00:56:12;;;;;;;6.18;1.40;;;3.40;99.90;;;;;;5006164;28;20042;-76
2023/03/27 00:58:50;;;;;;;6.53;1.60;;;3.50;99.90;;;;;;5003943;28;20401;-76
2023/03/27 01:01:18;;;;;;;5.95;2.10;;;3.40;99.90;;;;;;5036140;28;20030;-77
2023/03/27 01:03:46;;;;;;;6.28;1.50;;;3.40;99.90;;;;;;5006896;28;20034;-76
2023/03/27 01:06:15;;;;;;;9.43;1.10;;;3.30;99.90;;;;;;4986796;28;20053;-76
2023/03/27 01:08:43;;;;;;;6.95;1.05;;;3.30;99.90;;;;;;4990040;28;20030;-76
2023/03/27 01:11:47;;;;;;;3.60;1.08;;;3.30;99.90;;;;;;5006363;28;20548;-76
2023/03/27 01:14:29;;;;;;;6.57;1.33;;;3.30;99.90;;;;;;4985132;28;20038;-76
2023/03/27 01:17:05;;;;;;;6.32;1.13;;;3.30;99.90;;;;;;5004958;28;20045;-74
2023/03/27 01:19:53;;;;;;;5.05;1.20;;;3.30;99.90;;;;;;5005964;28;20482;-74
2023/03/27 01:22:36;;;;;;;3.50;0.90;;;3.30;99.90;;;;;;5004665;28;20036;-76
2023/03/27 01:26:00;;;;;;;9.73;1.17;;;3.30;99.90;;;;;;5006315;28;20049;-76
2023/03/27 01:28:35;;;;;;;5.45;1.10;;;3.20;99.90;;;;;;4969223;28;20076;-74
2023/03/27 01:31:28;;;;;;;7.72;1.05;;;3.20;99.90;;;;;;5008152;28;20483;-74
2023/03/27 01:34:15;;;;;;;4.20;1.40;;;3.20;99.90;;;;;;5029860;28;20783;-74
2023/03/27 01:37:05;;;;;;;4.43;1.08;;;3.20;99.90;;;;;;5028348;28;20152;-76
2023/03/27 01:40:10;;;;;;;4.50;1.00;;;3.20;99.90;;;;;;5008946;28;20164;-76
2023/03/27 01:42:44;;;;;;;4.88;1.02;;;3.10;99.90;;;;;;5007671;28;20084;-76
2023/03/27 01:45:27;;;;;;;4.22;0.88;;;3.10;99.90;;;;;;4994355;28;20466;-76
2023/03/27 01:48:09;;;;;;;3.78;1.08;;;3.20;99.90;;;;;;5005864;28;20196;-74
2023/03/27 01:50:45;;;;;;;4.05;0.80;;;3.10;99.90;;;;;;5035192;28;20038;-74
2023/03/27 01:53:15;;;;;;;5.75;1.13;;;3.10;99.90;;;;;;5008792;28;20046;-74
2023/03/27 01:55:49;;;;;;;5.63;1.00;;;3.10;99.90;;;;;;5006233;28;20022;-74
2023/03/27 01:58:27;;;;;;;6.85;1.30;;;3.10;99.90;;;;;;5007105;28;20037;-77
2023/03/27 02:00:59;;;;;;;6.93;1.17;;;3.10;99.90;;;;;;5011820;28;20034;-74
2023/03/27 02:03:34;;;;;;;7.68;0.98;;;3.10;99.90;;;;;;5011299;28;20119;-74
2023/03/27 02:06:10;;;;;;;4.45;1.58;;;3.10;99.90;;;;;;5008093;28;20030;-74
2023/03/27 02:09:05;;;;;;;3.55;1.27;;;3.00;99.90;;;;;;5009526;28;20018;-74
2023/03/27 02:11:45;;;;;;;6.03;1.00;;;3.00;99.90;;;;;;5010487;28;20072;-74
2023/03/27 02:14:23;;;;;;;10.00;1.33;;;3.00;99.90;;;;;;5007990;28;20034;-74
2023/03/27 02:16:54;;;;;;;7.47;1.60;;;3.00;99.90;;;;;;5008699;28;20030;-76
2023/03/27 02:19:25;;;;;;;4.25;1.23;;;3.00;99.90;;;;;;5009162;28;20052;-74
2023/03/27 02:21:51;;;;;;;5.32;1.27;;;2.90;99.90;;;;;;5007689;28;20049;-74
2023/03/27 02:24:17;;;;;;;7.53;1.55;;;2.80;99.90;;;;;;5007004;28;20072;-76
2023/03/27 02:26:44;;;;;;;8.55;1.35;;;2.90;99.90;;;;;;5009930;28;20022;-76
2023/03/27 02:29:36;;;;;;;8.40;2.63;;;2.90;99.90;;;;;;5008268;28;20037;-74
2023/03/27 02:32:02;;;;;;;6.30;1.45;;;2.80;99.90;;;;;;5007842;28;20038;-74
2023/03/27 02:34:40;;;;;;;4.10;1.33;;;2.90;99.90;;;;;;5030011;28;20084;-74
2023/03/27 02:37:38;;;;;;;9.70;1.60;;;2.80;99.90;;;;;;5005983;28;20494;-74
2023/03/27 02:40:33;;;;;;;6.50;1.60;;;2.90;99.90;;;;;;5008129;28;20041;-74
2023/03/27 02:43:08;;;;;;;4.95;1.20;;;2.80;99.90;;;;;;5032773;28;20049;-76
2023/03/27 02:46:09;;;;;;;5.50;1.45;;;2.80;99.90;;;;;;5027856;28;20022;-74
2023/03/27 02:48:41;;;;;;;5.95;1.73;;;2.80;99.90;;;;;;5008040;28;20070;-74
2023/03/27 02:51:27;;;;;;;8.32;1.70;;;2.80;99.90;;;;;;4990403;28;20034;-74
2023/03/27 02:54:02;;;;;;;4.65;1.50;;;2.70;99.90;;;;;;5005526;28;20034;-74
2023/03/27 02:56:32;;;;;;;8.15;1.17;;;2.70;99.90;;;;;;5006544;28;20025;-77
2023/03/27 02:59:04;;;;;;;6.95;1.40;;;2.80;99.90;;;;;;5007076;28;20351;-76
2023/03/27 03:01:32;;;;;;;4.72;1.30;;;2.80;99.90;;;;;;5005511;28;20033;-76
2023/03/27 03:04:23;;;;;;;7.00;1.30;;;2.80;99.90;;;;;;5004723;28;20911;-74
2023/03/27 03:06:49;;;;;;;4.82;1.50;;;2.80;99.90;;;;;;5002337;28;20045;-76
2023/03/27 03:09:15;;;;;;;3.75;1.60;;;2.80;99.90;;;;;;4992971;28;20038;-76
2023/03/27 03:11:48;;;;;;;5.00;1.50;;;2.70;99.90;;;;;;5008857;28;20029;-76
2023/03/27 03:14:15;;;;;;;5.82;1.60;;;2.60;99.90;;;;;;5005997;28;20029;-76
2023/03/27 03:16:41;;;;;;;10.10;1.88;;;2.60;99.90;;;;;;4988110;28;20054;-76
2023/03/27 03:19:07;;;;;;;7.10;2.10;;;2.60;99.90;;;;;;5007090;28;20053;-77
2023/03/27 03:21:33;;;;;;;9.80;2.08;;;2.70;99.90;;;;;;5004698;28;20529;-76
2023/03/27 03:24:00;;;;;;;8.07;1.67;;;2.70;99.90;;;;;;5006634;28;20049;-76
2023/03/27 03:26:26;;;;;;;8.73;1.92;;;2.70;99.90;;;;;;5005759;28;20040;-74
2023/03/27 03:28:51;;;;;;;11.48;2.03;;;2.70;99.90;;;;;;5005664;28;20026;-76
2023/03/27 03:31:17;;;;;;;8.73;1.65;;;2.60;99.90;;;;;;4990913;28;20188;-76
2023/03/27 03:33:43;;;;;;;5.00;1.20;;;2.70;99.90;;;;;;4990573;28;20025;-74
2023/03/27 03:36:13;;;;;;;8.95;1.42;;;2.60;99.90;;;;;;5005255;28;20486;-74
2023/03/27 03:38:40;;;;;;;4.37;1.10;;;2.60;99.90;;;;;;5006465;28;20112;-76
2023/03/27 03:41:06;;;;;;;8.02;1.42;;;2.60;99.90;;;;;;5008180;28;20041;-74
2023/03/27 03:43:32;;;;;;;6.43;1.58;;;2.60;99.90;;;;;;5011663;28;20040;-74
2023/03/27 03:45:58;;;;;;;5.53;1.75;;;2.60;99.90;;;;;;5007162;28;20033;-76
2023/03/27 03:48:25;;;;;;;6.90;1.25;;;2.60;99.90;;;;;;5017816;28;20405;-77
2023/03/27 03:50:51;;;;;;;5.75;1.27;;;2.60;99.90;;;;;;5007343;28;20410;-76
2023/03/27 03:53:19;;;;;;;7.75;2.55;;;2.60;99.90;;;;;;5007231;28;20108;-74
2023/03/27 03:55:45;;;;;;;9.05;1.35;;;2.60;99.90;;;;;;5005024;28;20072;-74
2023/03/27 03:58:11;;;;;;;8.18;1.73;;;2.50;99.90;;;;;;5006260;28;20556;-74
2023/03/27 04:00:38;;;;;;;6.45;1.70;;;2.50;99.90;;;;;;4987677;28;20034;-74
2023/03/27 04:03:09;;;;;;;7.78;1.50;;;2.50;99.90;;;;;;4990736;28;20130;-73
2023/03/27 04:05:36;;;;;;;5.78;1.60;;;2.50;99.90;;;;;;5006543;28;20108;-75
2023/03/27 04:08:02;;;;;;;7.05;2.13;;;2.40;99.90;;;;;;5006005;28;20041;-75
2023/03/27 04:10:29;;;;;;;17.83;2.08;;;2.50;99.90;;;;;;5006028;28;20473;-74
2023/03/27 04:12:57;;;;;;;9.52;2.10;;;2.40;99.90;;;;;;5008747;28;20033;-74
2023/03/27 04:15:23;;;;;;;11.95;1.90;;;2.40;99.90;;;;;;5004484;28;20053;-74
2023/03/27 04:17:49;;;;;;;6.15;1.80;;;2.50;99.90;;;;;;5006798;28;20069;-75
2023/03/27 04:20:16;;;;;;;5.32;1.80;;;2.50;99.90;;;;;;5004834;28;20049;-77
2023/03/27 04:22:47;;;;;;;5.88;2.10;;;2.50;99.90;;;;;;5005352;28;20105;-75
2023/03/27 04:25:16;;;;;;;9.27;2.30;;;2.50;99.90;;;;;;5007085;28;20456;-75
2023/03/27 04:27:42;;;;;;;11.68;1.88;;;2.50;99.90;;;;;;5005083;28;20054;-75
2023/03/27 04:30:12;;;;;;;11.23;1.95;;;2.50;99.90;;;;;;5004878;28;20417;-75
2023/03/27 04:32:39;;;;;;;9.88;1.90;;;2.50;99.90;;;;;;5003120;28;20052;-74
2023/03/27 04:35:05;;;;;;;7.28;1.75;;;2.50;99.90;;;;;;4989355;28;20404;-74
2023/03/27 04:37:31;;;;;;;6.55;2.13;;;2.50;99.90;;;;;;5005812;28;20033;-76
2023/03/27 04:39:59;;;;;;;6.13;1.67;;;2.40;99.90;;;;;;5029247;28;20034;-77
2023/03/27 04:42:25;;;;;;;9.70;1.55;;;2.40;99.90;;;;;;5006266;28;20075;-74
2023/03/27 04:44:51;;;;;;;7.18;1.60;;;2.50;99.90;;;;;;5006988;28;20037;-74
2023/03/27 04:47:19;;;;;;;10.55;2.20;;;2.50;99.90;;;;;;5007075;28;20099;-76
2023/03/27 04:49:49;;;;;;;7.60;1.92;;;2.40;99.90;;;;;;5010713;28;20618;-76
2023/03/27 04:52:17;;;;;;;9.60;1.40;;;2.40;99.90;;;;;;5006332;28;20041;-77
2023/03/27 04:54:43;;;;;;;6.05;1.52;;;2.40;99.90;;;;;;5005567;28;20065;-74
2023/03/27 04:57:10;;;;;;;2.83;1.33;;;2.40;99.90;;;;;;5002509;28;20363;-76
2023/03/27 04:59:36;;;;;;;4.82;1.88;;;2.40;99.90;;;;;;5006579;28;20030;-74
2023/03/27 05:02:04;;;;;;;4.38;1.33;;;2.40;99.90;;;;;;5009038;28;20402;-75
2023/03/27 05:04:30;;;;;;;4.80;1.83;;;2.40;99.90;;;;;;5009308;28;20026;-75
2023/03/27 05:06:58;;;;;;;8.77;1.60;;;2.40;99.90;;;;;;5034343;28;20026;-75
2023/03/27 05:09:25;;;;;;;10.02;1.90;;;2.30;99.90;;;;;;5009865;28;20030;-74
2023/03/27 05:11:51;;;;;;;6.88;1.60;;;2.30;99.90;;;;;;5008936;28;20410;-74
2023/03/27 05:14:21;;;;;;;9.95;1.50;;;2.30;99.90;;;;;;5005956;28;20180;-77
2023/03/27 05:16:51;;;;;;;5.28;1.40;;;2.30;99.90;;;;;;5020740;28;20095;-77
2023/03/27 05:19:20;;;;;;;9.95;1.98;;;2.30;99.90;;;;;;5005063;28;20497;-77
2023/03/27 05:21:46;;;;;;;3.10;1.20;;;2.40;99.90;;;;;;5007827;28;20037;-77
2023/03/27 05:24:14;;;;;;;4.38;1.30;;;3.50;99.90;;;;;;5016570;28;20408;-75
2023/03/27 05:26:42;;;;;;;4.65;1.52;;;3.30;99.90;;;;;;5015599;28;20284;-75
2023/03/27 05:29:08;;;;;;;9.13;2.00;;;2.90;99.90;;;;;;5034574;28;20030;-77
2023/03/27 05:31:35;;;;;;;6.05;1.70;;;2.70;99.90;;;;;;5008183;28;20400;-76
2023/03/27 05:34:02;;;;;;;7.13;1.70;;;2.60;99.90;;;;;;5008185;28;20030;-77
2023/03/27 05:36:28;;;;;;;5.78;1.52;;;2.50;99.90;;;;;;5008207;28;20486;-76
2023/03/27 05:38:56;;;;;;;8.90;1.67;;;2.60;99.90;;;;;;5009671;28;20092;-75
2023/03/27 05:41:23;;;;;;;10.88;1.80;;;2.50;99.90;;;;;;5029261;28;21959;-74
2023/03/27 05:43:50;;;;;;;4.88;1.65;;;2.50;99.90;;;;;;4990377;28;20087;-73
2023/03/27 05:46:16;;;;;;;4.75;1.60;;;2.50;99.90;;;;;;5005980;28;20127;-72
2023/03/27 05:48:43;;;;;;;10.05;1.70;;;2.50;99.90;;;;;;5009868;28;20022;-71
2023/03/27 05:51:09;;;;;;;5.22;1.75;;;2.50;99.90;;;;;;4988672;28;20037;-72
2023/03/27 05:53:38;;;;;;;8.95;1.73;;;2.50;99.90;;;;;;5004740;28;20091;-72
2023/03/27 05:56:05;;;;;;;5.88;1.70;;;2.60;99.90;;;;;;5006283;28;20033;-72
2023/03/27 05:58:31;;;;;;;7.25;1.73;;;2.60;99.90;;;;;;5028724;28;20105;-72
2023/03/27 06:00:57;;;;;;;7.40;1.65;;;2.60;99.90;;;;;;5004138;28;20522;-73
2023/03/27 06:03:23;;;;;;;9.23;2.03;;;2.60;99.90;;;;;;5008945;28;20022;-73
2023/03/27 06:05:49;;;;;;;8.43;2.00;;;2.70;99.90;;;;;;5002323;28;20038;-72
2023/03/27 06:08:15;;;;;;;4.32;1.42;;;2.70;99.90;;;;;;5016363;28;20036;-73
2023/03/27 06:10:43;;;;;;;6.55;1.90;;;2.70;99.90;;;;;;5003439;28;20037;-71
2023/03/27 06:13:12;;;;;;;5.88;1.80;;;2.70;99.90;;;;;;5007791;28;20157;-74
2023/03/27 06:15:40;;;;;;;7.50;1.83;;;2.70;99.90;;;;;;5005897;28;20030;-78
2023/03/27 06:18:08;;;;;;;5.97;1.48;;;2.80;99.90;;;;;;5009424;28;20113;-74
2023/03/27 06:20:34;;;;;;;3.67;1.65;;;2.80;99.90;;;;;;5009472;28;20026;-75
2023/03/27 06:23:01;;;;;;;6.63;1.60;;;2.80;99.90;;;;;;4989758;28;20052;-73
2023/03/27 06:25:32;;;;;;;7.75;2.13;;;2.90;99.90;;;;;;5032750;28;20106;-75
2023/03/27 06:27:58;;;;;;;9.32;1.98;;;2.90;99.90;;;;;;5007136;28;20168;-72
2023/03/27 06:30:25;;;;;;;13.07;1.83;;;2.90;99.90;;;;;;5009401;28;20018;-74
2023/03/27 06:32:56;;;;;;;4.80;1.50;;;2.90;99.90;;;;;;5008624;28;20021;-72
2023/03/27 06:35:22;;;;;;;7.53;1.65;;;3.00;99.90;;;;;;5005925;28;20096;-72
2023/03/27 06:37:51;;;;;;;6.85;1.75;;;3.00;99.90;;;;;;5011470;28;20041;-77
2023/03/27 06:40:23;;;;;;;5.35;1.50;;;3.10;99.90;;;;;;5008082;28;20061;-72
2023/03/27 06:42:51;;;;;;;6.78;1.77;;;3.10;99.90;;;;;;5008238;28;20156;-75
2023/03/27 06:45:17;;;;;;;9.43;1.88;;;3.10;99.90;;;;;;5010250;28;20581;-76
2023/03/27 06:47:57;;;;;;;6.35;1.80;;;3.20;99.90;;;;;;5036172;28;20112;-74
2023/03/27 06:50:25;;;;;;;5.00;1.55;;;3.30;99.90;;;;;;5004388;28;20033;-72
2023/03/27 06:52:51;;;;;;;5.47;1.50;;;3.40;99.90;;;;;;4964665;28;1189100;-72
2023/03/27 06:55:18;;;;;;;4.07;1.10;;;3.50;99.90;;;;;;5010989;28;20041;-72
2023/03/27 06:57:50;;;;;;;8.10;1.20;;;3.60;99.90;;;;;;5006085;28;20034;-72
2023/03/27 07:00:18;;;;;;;4.40;1.05;;;3.60;99.90;;;;;;5023253;28;20033;-72
2023/03/27 07:02:45;;;;;;;5.32;1.10;;;3.60;99.90;;;;;;5014509;28;20465;-72
2023/03/27 07:05:14;;;;;;;4.25;1.35;;;3.50;99.90;;;;;;5018322;28;20448;-75
2023/03/27 07:07:41;;;;;;;6.10;0.93;;;3.50;99.90;;;;;;5011080;28;20522;-72
2023/03/27 07:10:08;;;;;;;8.48;1.70;;;3.40;99.90;;;;;;5006899;28;20017;-72
2023/03/27 07:12:35;;;;;;;6.80;1.30;;;3.40;99.90;;;;;;5003739;28;20503;-72
2023/03/27 07:15:01;;;;;;;4.15;1.20;;;3.50;99.90;;;;;;5005021;28;20168;-72
2023/03/27 07:17:27;;;;;;;5.38;1.40;;;3.50;99.90;;;;;;5006824;28;20038;-72
2023/03/27 07:19:52;;;;;;;5.07;1.40;;;3.60;99.90;;;;;;5007423;28;20512;-73
2023/03/27 07:22:18;;;;;;;3.35;1.00;;;3.60;99.90;;;;;;5008515;28;20494;-78
2023/03/27 07:24:44;;;;;;;3.33;1.25;;;3.60;99.90;;;;;;5022759;28;20646;-73
2023/03/27 07:27:10;;;;;;;4.53;1.05;;;3.70;99.90;;;;;;5001528;28;20080;-72
2023/03/27 07:29:39;;;;;;;5.15;1.17;;;3.60;99.90;;;;;;5006265;28;20458;-74
2023/03/27 07:32:05;;;;;;;7.57;1.38;;;3.70;99.90;;;;;;5009254;28;20030;-72
2023/03/27 07:34:31;;;;;;;5.97;1.25;;;3.80;99.90;;;;;;5006330;28;20127;-75
2023/03/27 07:36:58;;;;;;;6.70;1.15;;;3.80;99.90;;;;;;5010431;28;20469;-73
2023/03/27 07:39:24;;;;;;;8.02;1.17;;;3.90;99.90;;;;;;5011378;28;20030;-74
2023/03/27 07:41:51;;;;;;;8.48;1.67;;;4.00;99.90;;;;;;5012982;28;20053;-73
2023/03/27 07:44:18;;;;;;;7.63;1.15;;;4.00;99.90;;;;;;5015144;28;20057;-73
2023/03/27 07:46:44;;;;;;;8.75;1.23;;;3.90;99.90;;;;;;5022071;28;20046;-75
2023/03/27 07:49:12;;;;;;;3.17;1.08;;;4.00;99.90;;;;;;5023139;28;20481;-75
2023/03/27 07:51:38;;;;;;;3.90;1.35;;;4.00;99.90;;;;;;4998992;28;20037;-76
2023/03/27 07:54:12;;;;;;;6.05;2.05;;;4.10;99.90;;;;;;5023171;28;20033;-75
2023/03/27 07:56:41;;;;;;;6.43;1.00;;;4.10;99.90;;;;;;5009842;28;20037;-71
2023/03/27 07:59:06;;;;;;;8.40;1.00;;;4.20;99.90;;;;;;5008396;28;20030;-72
2023/03/27 08:01:33;;;;;;;6.63;1.40;;;4.20;99.90;;;;;;5007653;28;20095;-73
2023/03/27 08:03:59;;;;;;;8.18;2.13;;;4.20;99.90;;;;;;5006841;28;20034;-72
2023/03/27 08:06:26;;;;;;;4.28;1.20;;;4.30;99.90;;;;;;5007615;28;20030;-74
2023/03/27 08:08:58;;;;;;;3.40;1.10;;;4.30;99.90;;;;;;5008985;28;20026;-75
2023/03/27 08:11:24;;;;;;;4.97;0.93;;;4.40;99.90;;;;;;5008194;28;20573;-73
2023/03/27 08:13:50;;;;;;;5.45;0.98;;;4.40;99.90;;;;;;5007085;28;20041;-72
2023/03/27 08:16:17;;;;;;;4.72;0.70;;;4.40;99.90;;;;;;5004347;28;20029;-72
2023/03/27 08:18:45;;;;;;;5.95;1.35;;;4.40;99.90;;;;;;5006541;28;20501;-78
2023/03/27 08:21:18;;;;;;;4.50;0.82;;;4.40;99.90;;;;;;5003959;28;20034;-72
2023/03/27 08:23:44;;;;;;;6.20;0.95;;;4.40;99.90;;;;;;5009726;28;20033;-73
2023/03/27 08:26:11;;;;;;;3.47;0.95;;;4.50;99.90;;;;;;5006698;28;20037;-72
2023/03/27 08:28:37;;;;;;;7.50;1.10;;;4.60;99.90;;;;;;5007804;28;20076;-75
2023/03/27 08:31:13;;;;;;;4.65;0.95;;;4.70;99.90;;;;;;5004635;28;20734;-76
2023/03/27 08:33:40;;;;;;;4.43;0.77;;;4.80;99.90;;;;;;5005825;28;20026;-72
2023/03/27 08:36:08;;;;;;;7.18;1.13;;;4.80;99.90;;;;;;5004724;28;20030;-74
2023/03/27 08:38:38;;;;;;;8.10;1.10;;;4.80;99.90;;;;;;5006522;28;20113;-72
2023/03/27 08:41:05;;;;;;;5.75;0.90;;;4.80;99.90;;;;;;5020561;28;20061;-72
2023/03/27 08:43:38;;;;;;;3.28;0.65;;;4.90;99.90;;;;;;5006620;28;20034;-81
2023/03/27 08:46:17;;;;;;;5.75;0.90;;;5.00;99.90;;;;;;4996298;28;20022;-76
2023/03/27 08:48:51;;;;;;;3.80;0.70;;;5.10;99.90;;;;;;5015795;28;20136;-82
2023/03/27 08:51:24;;;;;;;7.63;2.42;;;5.20;99.90;;;;;;5007963;28;20026;-78
2023/03/27 08:54:07;;;;;;;5.88;0.98;;;5.30;99.90;;;;;;5009956;28;20022;-76
2023/03/27 08:56:37;;;;;;;3.53;1.20;;;5.30;99.90;;;;;;5009955;28;20048;-74
2023/03/27 08:59:10;;;;;;;8.52;1.48;;;5.20;99.90;;;;;;5017144;28;20512;-72
2023/03/27 09:02:04;;;;;;;6.03;1.38;;;5.30;99.90;;;;;;5007401;28;20030;-72
2023/03/27 09:04:49;;;;;;;5.90;1.00;;;5.30;99.90;;;;;;5004165;28;20030;-72
2023/03/27 09:07:40;;;;;;;6.97;1.30;;;5.20;99.90;;;;;;5007211;28;20049;-74
2023/03/27 09:10:21;;;;;;;4.90;0.85;;;5.20;99.90;;;;;;5008818;28;20029;-78
2023/03/27 09:13:14;;;;;;;3.25;0.50;;;5.20;99.90;;;;;;5006102;28;20130;-76
2023/03/27 09:15:55;;;;;;;4.00;0.73;;;5.20;99.90;;;;;;5006123;28;20041;-75
2023/03/27 09:18:37;;;;;;;6.10;0.80;;;5.10;99.90;;;;;;5005354;28;20014;-72
2023/03/27 09:21:09;;;;;;;4.72;1.25;;;5.20;99.90;;;;;;5021890;28;20030;-75
2023/03/27 09:23:44;;;;;;;3.30;0.70;;;5.30;99.90;;;;;;5023738;28;20029;-72
2023/03/27 09:26:19;;;;;;;2.85;0.70;;;5.40;99.90;;;;;;5014016;28;20203;-72
2023/03/27 09:28:54;;;;;;;3.67;0.80;;;5.40;99.90;;;;;;5005823;28;20121;-72
2023/03/27 09:31:25;;;;;;;4.55;0.88;;;5.40;99.90;;;;;;5030611;28;20061;-72
2023/03/27 09:33:51;;;;;;;3.40;0.70;;;5.50;99.90;;;;;;5005548;28;20038;-72
2023/03/27 09:36:18;;;;;;;4.80;0.90;;;5.50;99.90;;;;;;5023033;28;20034;-75
2023/03/27 09:38:49;;;;;;;3.33;0.65;;;5.40;99.90;;;;;;5005558;28;20026;-75
2023/03/27 09:41:18;;;;;;;;;;;5.30;99.90;;;;;;5006422;28;20026;-72
2023/03/27 09:44:33;;;;;;;2.65;0.60;;;5.30;99.90;;;;;;5004792;28;20309;-73
2023/03/27 09:47:20;;;;;;;5.10;0.70;;;5.30;99.90;;;;;;5006008;28;20520;-76
2023/03/27 09:50:05;;;;;;;3.35;0.70;;;5.30;99.90;;;;;;5010246;28;20049;-73
2023/03/27 09:52:36;;;;;;;3.38;0.90;;;5.30;99.90;;;;;;5012272;28;20387;-73
2023/03/27 09:55:25;;;;;;;4.07;0.60;;;5.20;99.90;;;;;;5020535;28;20022;-73
2023/03/27 09:57:57;;;;;;;2.05;0.55;;;5.10;99.90;;;;;;5009926;28;20053;-74
2023/03/27 10:00:32;;;;;;;5.13;0.77;;;5.20;99.90;;;;;;5019042;28;20026;-73
2023/03/27 10:03:15;;;;;;;4.65;0.80;;;5.30;99.90;;;;;;4993326;28;20030;-74
2023/03/27 10:05:45;;;;;;;4.68;0.65;;;5.40;99.90;;;;;;5009738;28;20057;-74
2023/03/27 10:08:24;;;;;;;4.38;0.63;;;5.50;99.90;;;;;;4993583;28;20133;-72
2023/03/27 10:10:57;;;;;;;5.45;0.70;;;5.70;99.90;;;;;;5010903;28;20601;-73
2023/03/27 10:13:28;;;;;;;3.38;0.70;;;5.80;99.90;;;;;;5009132;28;20030;-73
2023/03/27 10:16:05;;;;;;;6.65;0.80;;;5.80;99.90;;;;;;5006675;28;20498;-72
2023/03/27 10:18:33;;;;;;;3.30;0.73;;;5.80;99.90;;;;;;5007980;28;20045;-72
2023/03/27 10:21:06;;;;;;;6.20;0.80;;;6.00;99.90;;;;;;5036019;28;20031;-73
2023/03/27 10:23:45;;;;;;;6.00;0.73;;;6.10;99.90;;;;;;5010333;28;20030;-74
2023/03/27 10:26:15;;;;;;;5.85;0.80;;;6.10;98.00;;;;;;5009786;28;20033;-74
2023/03/27 10:28:47;;;;;;;4.65;0.60;;;6.30;99.80;;;;;;5006305;28;20022;-72
2023/03/27 10:31:36;;;;;;;2.30;0.70;;;6.30;99.00;;;;;;5030267;28;20056;-72
2023/03/27 10:34:25;;;;;;;6.88;1.23;;;6.20;98.70;;;;;;5019473;28;20034;-72
2023/03/27 10:36:56;;;;;;;3.75;1.00;;;6.00;98.50;;;;;;5008880;28;20124;-73
2023/03/27 10:39:32;;;;;;;5.10;0.82;;;5.90;98.50;;;;;;5007480;28;20034;-72
2023/03/27 10:42:04;;;;;;;3.05;0.77;;;5.70;98.20;;;;;;5008251;28;20104;-74
2023/03/27 10:44:30;;;;;;;3.00;0.80;;;5.30;99.90;;;;;;5007743;28;20033;-74
2023/03/27 10:46:56;;;;;;;3.70;0.77;;;5.10;99.90;;;;;;5007802;28;20049;-72
2023/03/27 10:49:43;;;;;;;1.50;0.55;;;4.70;99.90;;;;;;5007547;28;20026;-72
2023/03/27 10:52:28;;;;;;;2.65;0.63;;;4.30;99.90;;;;;;5023833;28;20034;-74
2023/03/27 10:55:03;;;;;;;3.92;0.80;;;4.00;99.90;;;;;;5007265;28;20034;-71
2023/03/27 10:57:33;;;;;;;2.00;0.82;;;3.60;99.90;;;;;;5003875;28;20509;-72
2023/03/27 11:00:21;;;;;;;3.75;0.95;;;3.60;99.90;;;;;;5003879;28;20034;-72
2023/03/27 11:03:03;;;;;;;3.42;0.90;;;3.60;99.90;;;;;;5008135;28;20060;-74
2023/03/27 11:05:42;;;;;;;1.08;0.70;;;3.80;99.90;;;;;;5006640;28;20141;-72
2023/03/27 11:08:14;;;;;;;4.05;0.85;;;4.10;99.90;;;;;;5004652;28;20457;-72
2023/03/27 11:10:45;;;;;;;2.67;0.60;;;4.90;99.90;;;;;;5009828;28;20061;-72
2023/03/27 11:13:33;;;;;;;1.07;0.50;;;6.10;99.90;;;;;;5009155;28;20064;-72
2023/03/27 11:16:17;;;;;;;1.50;0.60;;;7.70;99.90;;;;;;5002714;28;23778;-76
2023/03/27 11:19:07;;;;;;;1.98;0.57;;;8.80;99.90;;;;;;5006615;28;20025;-72
2023/03/27 11:21:41;;;;;;;3.05;0.80;;;10.10;99.90;;;;;;5028842;28;20044;-72
2023/03/27 11:24:34;;;;;;;1.30;0.50;;;11.00;99.80;;;;;;5007229;28;20033;-72
2023/03/27 11:27:34;;;;;;;2.65;0.88;;;11.50;97.30;;;;;;5002041;28;20124;-73
2023/03/27 11:30:07;;;;;;;2.00;0.75;;;10.80;98.30;;;;;;5004074;28;20926;-71
2023/03/27 11:32:57;;;;;;;2.65;0.90;;;10.30;99.90;;;;;;5041597;28;20041;-74
2023/03/27 11:35:27;;;;;;;1.37;0.80;;;10.50;99.20;;;;;;5005037;28;20101;-74
2023/03/27 11:38:00;;;;;;;2.40;1.07;;;10.50;99.10;;;;;;5008616;28;20641;-71
2023/03/27 11:40:42;;;;;;;3.13;0.90;;;10.40;98.50;;;;;;5008524;28;20541;-74
2023/03/27 11:43:15;;;;;;;3.50;1.10;;;9.40;99.80;;;;;;4989481;28;20044;-73
2023/03/27 11:46:01;;;;;;;3.38;1.23;;;8.30;99.90;;;;;;5004426;28;20563;-72
2023/03/27 11:49:01;;;;;;;3.03;0.90;;;7.60;99.90;;;;;;5004223;28;20037;-73
2023/03/27 11:51:45;;;;;;;633.20;370.43;;;6.30;99.90;;;;;;5019820;28;20022;-72
2023/03/27 11:54:27;;;;;;;342.27;205.63;;;5.60;99.90;;;;;;5006933;28;20501;-74
2023/03/27 11:56:54;;;;;;;55.00;36.55;;;5.40;99.90;;;;;;5005574;28;20026;-73
2023/03/27 11:59:40;;;;;;;2.72;1.00;;;5.00;99.90;;;;;;5005725;28;20061;-74
2023/03/27 12:02:20;;;;;;;4.10;0.68;;;5.00;99.90;;;;;;5004932;28;20105;-72
2023/03/27 12:04:55;;;;;;;2.35;0.50;;;4.90;99.90;;;;;;5006416;28;20065;-73
2023/03/27 12:07:55;;;;;;;3.20;0.60;;;5.00;99.90;;;;;;5007527;28;20425;-73
2023/03/27 12:10:28;;;;;;;3.45;0.70;;;4.90;99.90;;;;;;5005884;28;20494;-73
2023/03/27 12:13:28;;;;;;;1.95;0.47;;;4.90;99.90;;;;;;5005841;28;20116;-71
2023/03/27 12:16:16;;;;;;;2.83;0.57;;;5.20;99.90;;;;;;4990076;28;20044;-76
2023/03/27 12:19:00;;;;;;;4.70;0.80;;;5.60;99.90;;;;;;5027747;28;20501;-73
2023/03/27 12:21:48;;;;;;;2.17;0.75;;;6.10;99.90;;;;;;5013038;28;20087;-72
2023/03/27 12:24:32;;;;;;;1.67;0.50;;;6.60;99.90;;;;;;5034589;28;20037;-75
2023/03/27 12:27:23;;;;;;;2.03;0.45;;;7.00;99.90;;;;;;5005586;28;20474;-74
2023/03/27 12:29:58;;;;;;;2.25;0.55;;;7.40;99.90;;;;;;4990405;28;20292;-74
2023/03/27 12:32:49;;;;;;;4.45;0.63;;;7.50;99.90;;;;;;5006085;28;20462;-74
2023/03/27 12:35:17;;;;;;;;;;;8.00;99.90;;;;;;5005939;28;20616;-73
2023/03/27 12:38:06;;;;;;;2.80;0.50;;;8.40;99.90;;;;;;5003827;28;19932;-74
2023/03/27 12:40:40;;;;;;;4.47;0.82;;;8.80;99.90;;;;;;5001937;28;20457;-72
2023/03/27 12:43:18;;;;;;;3.75;0.70;;;9.10;99.90;;;;;;5006614;28;20077;-74
2023/03/27 12:46:09;;;;;;;5.18;0.90;;;8.90;99.90;;;;;;5007417;28;20394;-72
2023/03/27 12:49:05;;;;;;;2.78;0.80;;;8.80;99.90;;;;;;5029283;28;20057;-72
2023/03/27 12:51:53;;;;;;;5.93;0.80;;;8.40;99.90;;;;;;5022133;28;20127;-74
2023/03/27 12:54:27;;;;;;;5.72;0.90;;;7.90;99.90;;;;;;5005873;28;20033;-73
2023/03/27 12:57:04;;;;;;;4.45;1.13;;;7.40;99.90;;;;;;5003403;28;20022;-72
2023/03/27 12:59:33;;;;;;;3.13;0.60;;;7.10;99.90;;;;;;5006540;28;20644;-73
2023/03/27 13:02:02;;;;;;;5.57;0.98;;;6.90;99.90;;;;;;5005625;28;20034;-74
2023/03/27 13:04:54;;;;;;;3.97;1.08;;;6.60;99.90;;;;;;5005608;28;20026;-72
2023/03/27 13:07:49;;;;;;;4.20;1.00;;;6.50;99.90;;;;;;5003599;28;20034;-72
2023/03/27 13:10:24;;;;;;;3.33;0.90;;;6.30;99.90;;;;;;5007775;28;20239;-73
2023/03/27 13:12:59;;;;;;;5.80;0.90;;;6.30;99.90;;;;;;4983634;28;20029;-72
2023/03/27 13:15:54;;;;;;;4.57;0.80;;;6.10;99.90;;;;;;5005646;28;20080;-73
2023/03/27 13:18:33;;;;;;;3.55;1.27;;;5.80;99.90;;;;;;5004817;28;20042;-72
2023/03/27 13:21:31;;;;;;;4.88;0.70;;;5.20;99.90;;;;;;5008498;28;20140;-72
2023/03/27 13:24:28;;;;;;;3.30;0.90;;;4.90;99.90;;;;;;5012045;28;20466;-74
2023/03/27 13:27:20;;;;;;;3.33;0.65;;;4.60;99.90;;;;;;5008863;28;20116;-72
2023/03/27 13:29:51;;;;;;;5.38;0.75;;;4.70;99.90;;;;;;5032364;28;20044;-76